This is the latest recevied weather packets stored in our database for station/object PY5KT-13. If no packets are shown the sender has not sent any weather packets the latest 10 day(s).
| Time | Temp. | Humidity | Pressure | Rain* | Wind** | Luminosity | Snow |
|---|---|---|---|---|---|---|---|
| 1778100940 | 21.67° C | 84% | 1020.7 hPa | 0 mm | - | 47 W/m² | - |
| 1778100639 | 21.67° C | 82% | 1020.8 hPa | 0 mm | - | 48 W/m² | - |
| 1778100337 | 22.22° C | 80% | 1020.7 hPa | 0 mm | - | 50 W/m² | - |
| 1778100035 | 22.78° C | 78% | 1020.7 hPa | 0 mm | - | 51 W/m² | - |
| 1778099733 | 22.78° C | 77% | 1020.7 hPa | 0 mm | - | 53 W/m² | - |
| 1778099432 | 22.78° C | 75% | 1020.7 hPa | 0 mm | - | 55 W/m² | - |
| 1778099130 | 23.33° C | 73% | 1020.6 hPa | 0 mm | - | 57 W/m² | - |
| 1778098828 | 23.89° C | 70% | 1020.6 hPa | 0 mm | - | 60 W/m² | - |
| 1778098527 | 23.89° C | 71% | 1020.6 hPa | 0 mm | - | 59 W/m² | - |
| 1778098225 | 24.44° C | 70% | 1020.7 hPa | 0 mm | - | 75 W/m² | - |
| 1778097923 | 25° C | 68% | 1020.7 hPa | 0 mm | - | 75 W/m² | - |
| 1778097621 | 24.44° C | 70% | 1020.8 hPa | 0 mm | - | 82 W/m² | - |
| 1778097319 | 25° C | 66% | 1020.8 hPa | 0 mm | - | 87 W/m² | - |
| 1778097017 | 26.11° C | 63% | 1020.8 hPa | 0 mm | - | 91 W/m² | - |
| 1778096716 | 25° C | 67% | 1020.8 hPa | 0 mm | - | 136 W/m² | - |
| 1778096414 | 25° C | 66% | 1020.9 hPa | 0 mm | - | 188 W/m² | - |
| 1778096113 | 25° C | 66% | 1020.9 hPa | 0 mm | - | 126 W/m² | - |
| 1778095811 | 25.56° C | 64% | 1020.8 hPa | 0 mm | - | 142 W/m² | - |
| 1778095510 | 26.11° C | 63% | 1020.8 hPa | 0 mm | - | 96 W/m² | - |
| 1778095208 | 26.11° C | 63% | 1020.9 hPa | 0 mm | - | 93 W/m² | - |
| 1778094906 | 26.11° C | 61% | 1020.9 hPa | 0 mm | - | 101 W/m² | - |
| 1778094604 | 27.22° C | 56% | 1020.9 hPa | 0 mm | - | 101 W/m² | - |
| 1778094302 | 28.89° C | 51% | 1021 hPa | 0 mm | - | 105 W/m² | - |
| 1778094001 | 29.44° C | 51% | 1021 hPa | 0 mm | - | 128 W/m² | - |
| 1778093699 | 28.89° C | 51% | 1021 hPa | 0 mm | - | 197 W/m² | - |
* Rain latest hour (hover to see other rain measurements)
** Current wind speed in m/s (hover to see current wind gust speed)